sensor_id;sensor_type;location;lat;lon;timestamp;temperature;humidity
64638;HTU21D;51049;45.046;38.950;2023-05-27T00:00:07;18.56;77.72
64638;HTU21D;51049;45.046;38.950;2023-05-27T00:02:33;18.56;0.00
64638;HTU21D;51049;45.046;38.950;2023-05-27T00:04:59;18.57;0.00
64638;HTU21D;51049;45.046;38.950;2023-05-27T00:07:25;18.56;0.00
64638;HTU21D;51049;45.046;38.950;2023-05-27T00:09:51;18.55;0.00
64638;HTU21D;51049;45.046;38.950;2023-05-27T00:12:17;18.54;0.00
64638;HTU21D;51049;45.046;38.950;2023-05-27T00:14:43;18.54;0.00
64638;HTU21D;51049;45.046;38.950;2023-05-27T00:17:10;18.55;0.00
64638;HTU21D;51049;45.046;38.950;2023-05-27T00:19:42;18.57;0.00
64638;HTU21D;51049;45.046;38.950;2023-05-27T00:22:11;18.58;0.00
64638;HTU21D;51049;45.046;38.950;2023-05-27T00:24:37;18.57;0.00
64638;HTU21D;51049;45.046;38.950;2023-05-27T00:27:08;18.56;0.00
64638;HTU21D;51049;45.046;38.950;2023-05-27T00:29:35;18.56;0.00
64638;HTU21D;51049;45.046;38.950;2023-05-27T00:32:02;18.54;0.00
64638;HTU21D;51049;45.046;38.950;2023-05-27T00:34:31;18.52;0.00
64638;HTU21D;51049;45.046;38.950;2023-05-27T00:36:57;18.52;0.00
64638;HTU21D;51049;45.046;38.950;2023-05-27T00:39:23;18.51;0.00
64638;HTU21D;51049;45.046;38.950;2023-05-27T00:41:50;18.49;0.00
64638;HTU21D;51049;45.046;38.950;2023-05-27T00:44:17;18.49;0.00
64638;HTU21D;51049;45.046;38.950;2023-05-27T00:46:44;18.48;0.00
64638;HTU21D;51049;45.046;38.950;2023-05-27T00:49:12;18.49;0.00
64638;HTU21D;51049;45.046;38.950;2023-05-27T00:51:39;18.30;78.16
64638;HTU21D;51049;45.046;38.950;2023-05-27T00:54:07;18.27;78.17
64638;HTU21D;51049;45.046;38.950;2023-05-27T00:56:33;18.26;78.18
64638;HTU21D;51049;45.046;38.950;2023-05-27T00:59:00;18.26;78.21
64638;HTU21D;51049;45.046;38.950;2023-05-27T01:01:26;18.26;78.24
64638;HTU21D;51049;45.046;38.950;2023-05-27T01:03:53;18.25;78.31
64638;HTU21D;51049;45.046;38.950;2023-05-27T01:06:28;18.26;78.35
64638;HTU21D;51049;45.046;38.950;2023-05-27T01:09:03;18.25;78.34
64638;HTU21D;51049;45.046;38.950;2023-05-27T01:11:51;18.25;78.36
64638;HTU21D;51049;45.046;38.950;2023-05-27T01:14:21;18.25;78.34
64638;HTU21D;51049;45.046;38.950;2023-05-27T01:16:51;18.26;78.38
64638;HTU21D;51049;45.046;38.950;2023-05-27T01:19:30;18.25;78.41
64638;HTU21D;51049;45.046;38.950;2023-05-27T01:21:59;18.24;78.40
64638;HTU21D;51049;45.046;38.950;2023-05-27T01:24:25;18.25;78.39
64638;HTU21D;51049;45.046;38.950;2023-05-27T01:26:51;18.24;78.41
64638;HTU21D;51049;45.046;38.950;2023-05-27T01:29:17;18.24;78.45
64638;HTU21D;51049;45.046;38.950;2023-05-27T01:32:03;18.24;78.53
64638;HTU21D;51049;45.046;38.950;2023-05-27T01:34:44;18.22;78.53
64638;HTU21D;51049;45.046;38.950;2023-05-27T01:37:16;18.23;78.53
64638;HTU21D;51049;45.046;38.950;2023-05-27T01:39:45;18.22;78.53
64638;HTU21D;51049;45.046;38.950;2023-05-27T01:42:12;18.22;78.56
64638;HTU21D;51049;45.046;38.950;2023-05-27T01:44:39;18.24;78.56
64638;HTU21D;51049;45.046;38.950;2023-05-27T01:47:06;18.24;78.59
64638;HTU21D;51049;45.046;38.950;2023-05-27T01:49:32;18.26;78.67
64638;HTU21D;51049;45.046;38.950;2023-05-27T01:51:58;18.26;78.67
64638;HTU21D;51049;45.046;38.950;2023-05-27T01:54:24;18.27;78.69
64638;HTU21D;51049;45.046;38.950;2023-05-27T01:56:51;18.27;78.69
64638;HTU21D;51049;45.046;38.950;2023-05-27T01:59:17;18.27;78.70
64638;HTU21D;51049;45.046;38.950;2023-05-27T02:01:43;18.27;78.72
64638;HTU21D;51049;45.046;38.950;2023-05-27T02:04:09;18.28;78.71
64638;HTU21D;51049;45.046;38.950;2023-05-27T02:06:35;18.28;78.69
64638;HTU21D;51049;45.046;38.950;2023-05-27T02:09:02;18.30;78.69
64638;HTU21D;51049;45.046;38.950;2023-05-27T02:11:29;18.30;78.69
64638;HTU21D;51049;45.046;38.950;2023-05-27T02:13:54;18.32;78.72
64638;HTU21D;51049;45.046;38.950;2023-05-27T02:16:22;18.33;78.74
64638;HTU21D;51049;45.046;38.950;2023-05-27T02:18:48;18.33;78.74
64638;HTU21D;51049;45.046;38.950;2023-05-27T02:21:17;18.34;78.73
64638;HTU21D;51049;45.046;38.950;2023-05-27T02:23:43;18.35;78.73
64638;HTU21D;51049;45.046;38.950;2023-05-27T02:26:09;18.38;78.75
64638;HTU21D;51049;45.046;38.950;2023-05-27T02:28:35;18.37;78.75
64638;HTU21D;51049;45.046;38.950;2023-05-27T02:31:01;18.39;78.74
64638;HTU21D;51049;45.046;38.950;2023-05-27T02:33:27;18.40;78.72
64638;HTU21D;51049;45.046;38.950;2023-05-27T02:35:53;18.42;78.71
64638;HTU21D;51049;45.046;38.950;2023-05-27T02:38:19;18.42;78.72
64638;HTU21D;51049;45.046;38.950;2023-05-27T02:40:46;18.44;78.74
64638;HTU21D;51049;45.046;38.950;2023-05-27T02:43:13;18.46;78.74
64638;HTU21D;51049;45.046;38.950;2023-05-27T02:45:39;18.47;78.75
64638;HTU21D;51049;45.046;38.950;2023-05-27T02:48:07;18.47;78.75
64638;HTU21D;51049;45.046;38.950;2023-05-27T02:50:33;18.48;78.81
64638;HTU21D;51049;45.046;38.950;2023-05-27T02:52:59;18.48;78.81
64638;HTU21D;51049;45.046;38.950;2023-05-27T02:55:25;18.49;78.82
64638;HTU21D;51049;45.046;38.950;2023-05-27T02:57:51;18.51;78.82
64638;HTU21D;51049;45.046;38.950;2023-05-27T03:00:17;18.53;78.80
64638;HTU21D;51049;45.046;38.950;2023-05-27T03:02:43;18.56;78.78
64638;HTU21D;51049;45.046;38.950;2023-05-27T03:05:09;18.58;78.79
64638;HTU21D;51049;45.046;38.950;2023-05-27T03:07:35;18.61;78.78
64638;HTU21D;51049;45.046;38.950;2023-05-27T03:10:01;18.63;78.78
64638;HTU21D;51049;45.046;38.950;2023-05-27T03:12:27;18.64;78.76
64638;HTU21D;51049;45.046;38.950;2023-05-27T03:14:53;18.63;78.75
64638;HTU21D;51049;45.046;38.950;2023-05-27T03:17:19;18.62;78.74
64638;HTU21D;51049;45.046;38.950;2023-05-27T03:19:46;18.62;78.77
64638;HTU21D;51049;45.046;38.950;2023-05-27T03:22:12;18.61;78.81
64638;HTU21D;51049;45.046;38.950;2023-05-27T03:24:40;18.63;78.82
64638;HTU21D;51049;45.046;38.950;2023-05-27T03:27:06;18.64;78.79
64638;HTU21D;51049;45.046;38.950;2023-05-27T03:29:35;18.65;78.78
64638;HTU21D;51049;45.046;38.950;2023-05-27T03:32:01;18.66;78.78
64638;HTU21D;51049;45.046;38.950;2023-05-27T03:34:29;18.64;78.79
64638;HTU21D;51049;45.046;38.950;2023-05-27T03:36:55;18.65;78.85
64638;HTU21D;51049;45.046;38.950;2023-05-27T03:39:30;18.64;78.88
64638;HTU21D;51049;45.046;38.950;2023-05-27T03:41:58;18.66;78.88
64638;HTU21D;51049;45.046;38.950;2023-05-27T03:44:24;18.67;78.87
64638;HTU21D;51049;45.046;38.950;2023-05-27T03:46:50;18.69;78.87
64638;HTU21D;51049;45.046;38.950;2023-05-27T03:49:16;18.70;78.85
64638;HTU21D;51049;45.046;38.950;2023-05-27T03:51:42;18.70;78.83
64638;HTU21D;51049;45.046;38.950;2023-05-27T03:54:08;18.73;78.83
64638;HTU21D;51049;45.046;38.950;2023-05-27T03:56:34;18.74;78.86
64638;HTU21D;51049;45.046;38.950;2023-05-27T03:59:00;18.78;78.87
64638;HTU21D;51049;45.046;38.950;2023-05-27T04:01:28;18.81;78.82
64638;HTU21D;51049;45.046;38.950;2023-05-27T04:03:54;18.82;78.81
64638;HTU21D;51049;45.046;38.950;2023-05-27T04:06:20;18.85;78.76
64638;HTU21D;51049;45.046;38.950;2023-05-27T04:08:46;18.85;78.73
64638;HTU21D;51049;45.046;38.950;2023-05-27T04:11:12;18.84;78.77
64638;HTU21D;51049;45.046;38.950;2023-05-27T04:13:39;18.86;78.78
64638;HTU21D;51049;45.046;38.950;2023-05-27T04:16:06;18.87;78.74
64638;HTU21D;51049;45.046;38.950;2023-05-27T04:18:33;18.88;78.75
64638;HTU21D;51049;45.046;38.950;2023-05-27T04:20:59;18.92;78.72
64638;HTU21D;51049;45.046;38.950;2023-05-27T04:23:27;18.95;78.65
64638;HTU21D;51049;45.046;38.950;2023-05-27T04:25:53;18.99;78.63
64638;HTU21D;51049;45.046;38.950;2023-05-27T04:28:21;19.03;78.56
64638;HTU21D;51049;45.046;38.950;2023-05-27T04:30:47;19.10;78.46
64638;HTU21D;51049;45.046;38.950;2023-05-27T04:33:34;19.12;78.32
64638;HTU21D;51049;45.046;38.950;2023-05-27T04:36:01;19.15;78.31
64638;HTU21D;51049;45.046;38.950;2023-05-27T04:38:36;19.17;78.21
64638;HTU21D;51049;45.046;38.950;2023-05-27T04:41:05;19.18;78.20
64638;HTU21D;51049;45.046;38.950;2023-05-27T04:43:54;19.22;78.12
64638;HTU21D;51049;45.046;38.950;2023-05-27T04:46:26;19.24;78.07
64638;HTU21D;51049;45.046;38.950;2023-05-27T04:48:53;19.24;78.08
64638;HTU21D;51049;45.046;38.950;2023-05-27T04:51:19;19.29;78.05
64638;HTU21D;51049;45.046;38.950;2023-05-27T04:53:46;19.36;77.98
64638;HTU21D;51049;45.046;38.950;2023-05-27T04:56:16;19.44;77.89
64638;HTU21D;51049;45.046;38.950;2023-05-27T04:58:44;19.54;77.76
64638;HTU21D;51049;45.046;38.950;2023-05-27T05:01:14;19.61;77.60
64638;HTU21D;51049;45.046;38.950;2023-05-27T05:03:49;19.67;77.45
64638;HTU21D;51049;45.046;38.950;2023-05-27T05:06:29;19.72;77.31
64638;HTU21D;51049;45.046;38.950;2023-05-27T05:08:54;19.73;77.21
64638;HTU21D;51049;45.046;38.950;2023-05-27T05:11:21;19.74;77.21
64638;HTU21D;51049;45.046;38.950;2023-05-27T05:13:47;19.77;77.19
64638;HTU21D;51049;45.046;38.950;2023-05-27T05:16:13;19.81;77.18
64638;HTU21D;51049;45.046;38.950;2023-05-27T05:18:39;19.83;77.12
64638;HTU21D;51049;45.046;38.950;2023-05-27T05:21:05;19.87;77.06
64638;HTU21D;51049;45.046;38.950;2023-05-27T05:23:38;19.94;77.01
64638;HTU21D;51049;45.046;38.950;2023-05-27T05:26:06;20.02;76.89
64638;HTU21D;51049;45.046;38.950;2023-05-27T05:28:34;20.10;76.73
64638;HTU21D;51049;45.046;38.950;2023-05-27T05:31:01;20.19;76.56
64638;HTU21D;51049;45.046;38.950;2023-05-27T05:33:28;20.31;76.42
64638;HTU21D;51049;45.046;38.950;2023-05-27T05:35:55;20.44;76.27
64638;HTU21D;51049;45.046;38.950;2023-05-27T05:38:26;20.61;76.02
64638;HTU21D;51049;45.046;38.950;2023-05-27T05:40:53;20.76;75.54
64638;HTU21D;51049;45.046;38.950;2023-05-27T05:43:21;20.80;75.21
64638;HTU21D;51049;45.046;38.950;2023-05-27T05:45:48;20.87;74.92
64638;HTU21D;51049;45.046;38.950;2023-05-27T05:48:17;20.91;74.64
64638;HTU21D;51049;45.046;38.950;2023-05-27T05:50:43;20.98;74.38
64638;HTU21D;51049;45.046;38.950;2023-05-27T05:53:10;21.09;74.37
64638;HTU21D;51049;45.046;38.950;2023-05-27T05:55:36;21.25;74.13
64638;HTU21D;51049;45.046;38.950;2023-05-27T05:58:03;21.38;73.75
64638;HTU21D;51049;45.046;38.950;2023-05-27T06:00:30;21.48;73.61
64638;HTU21D;51049;45.046;38.950;2023-05-27T06:03:15;21.64;73.45
64638;HTU21D;51049;45.046;38.950;2023-05-27T06:05:48;21.83;73.15
64638;HTU21D;51049;45.046;38.950;2023-05-27T06:08:14;22.02;72.83
64638;HTU21D;51049;45.046;38.950;2023-05-27T06:10:46;22.16;72.41
64638;HTU21D;51049;45.046;38.950;2023-05-27T06:13:12;22.20;72.10
64638;HTU21D;51049;45.046;38.950;2023-05-27T06:15:39;22.23;71.85
64638;HTU21D;51049;45.046;38.950;2023-05-27T06:18:07;22.25;71.74
64638;HTU21D;51049;45.046;38.950;2023-05-27T06:20:33;22.27;71.45
64638;HTU21D;51049;45.046;38.950;2023-05-27T06:22:59;22.20;71.30
64638;HTU21D;51049;45.046;38.950;2023-05-27T06:25:31;22.17;71.35
64638;HTU21D;51049;45.046;38.950;2023-05-27T06:28:01;22.12;71.19
64638;HTU21D;51049;45.046;38.950;2023-05-27T06:30:27;22.16;71.03
64638;HTU21D;51049;45.046;38.950;2023-05-27T06:32:55;22.17;70.83
64638;HTU21D;51049;45.046;38.950;2023-05-27T06:35:22;22.18;70.70
64638;HTU21D;51049;45.046;38.950;2023-05-27T06:37:49;22.18;70.43
64638;HTU21D;51049;45.046;38.950;2023-05-27T06:40:16;22.16;70.21
64638;HTU21D;51049;45.046;38.950;2023-05-27T06:42:43;22.17;70.06
64638;HTU21D;51049;45.046;38.950;2023-05-27T06:45:21;22.21;69.81
64638;HTU21D;51049;45.046;38.950;2023-05-27T06:47:55;22.23;69.58
64638;HTU21D;51049;45.046;38.950;2023-05-27T06:50:20;22.31;69.40
64638;HTU21D;51049;45.046;38.950;2023-05-27T06:52:46;22.40;69.36
64638;HTU21D;51049;45.046;38.950;2023-05-27T06:55:12;22.58;69.14
64638;HTU21D;51049;45.046;38.950;2023-05-27T06:57:57;22.73;69.00
64638;HTU21D;51049;45.046;38.950;2023-05-27T07:00:32;22.91;68.73
64638;HTU21D;51049;45.046;38.950;2023-05-27T07:03:18;23.09;68.39
64638;HTU21D;51049;45.046;38.950;2023-05-27T07:05:44;23.17;67.95
64638;HTU21D;51049;45.046;38.950;2023-05-27T07:08:10;23.20;67.76
64638;HTU21D;51049;45.046;38.950;2023-05-27T07:10:39;23.22;67.67
64638;HTU21D;51049;45.046;38.950;2023-05-27T07:13:05;23.27;67.68
64638;HTU21D;51049;45.046;38.950;2023-05-27T07:15:57;23.37;67.41
64638;HTU21D;51049;45.046;38.950;2023-05-27T07:18:23;23.47;67.12
64638;HTU21D;51049;45.046;38.950;2023-05-27T07:20:51;23.56;66.68
64638;HTU21D;51049;45.046;38.950;2023-05-27T07:23:18;23.57;66.29
64638;HTU21D;51049;45.046;38.950;2023-05-27T07:25:51;23.50;66.25
64638;HTU21D;51049;45.046;38.950;2023-05-27T07:28:17;23.52;66.42
64638;HTU21D;51049;45.046;38.950;2023-05-27T07:30:46;23.55;66.19
64638;HTU21D;51049;45.046;38.950;2023-05-27T07:33:13;23.58;66.11
64638;HTU21D;51049;45.046;38.950;2023-05-27T07:35:41;23.64;66.04
64638;HTU21D;51049;45.046;38.950;2023-05-27T07:38:07;23.76;65.86
64638;HTU21D;51049;45.046;38.950;2023-05-27T07:40:33;23.95;65.64
64638;HTU21D;51049;45.046;38.950;2023-05-27T07:42:59;24.03;65.21
64638;HTU21D;51049;45.046;38.950;2023-05-27T07:45:26;23.96;64.99
64638;HTU21D;51049;45.046;38.950;2023-05-27T07:47:52;23.98;65.09
64638;HTU21D;51049;45.046;38.950;2023-05-27T07:50:18;24.02;65.01
64638;HTU21D;51049;45.046;38.950;2023-05-27T07:52:55;24.10;64.75
64638;HTU21D;51049;45.046;38.950;2023-05-27T07:55:26;24.13;64.86
64638;HTU21D;51049;45.046;38.950;2023-05-27T07:57:54;24.23;64.69
64638;HTU21D;51049;45.046;38.950;2023-05-27T08:00:25;24.28;64.30
64638;HTU21D;51049;45.046;38.950;2023-05-27T08:02:53;24.27;64.24
64638;HTU21D;51049;45.046;38.950;2023-05-27T08:05:27;24.34;64.03
64638;HTU21D;51049;45.046;38.950;2023-05-27T08:08:02;24.42;63.82
64638;HTU21D;51049;45.046;38.950;2023-05-27T08:11:00;24.53;63.53
64638;HTU21D;51049;45.046;38.950;2023-05-27T08:13:45;24.48;63.40
64638;HTU21D;51049;45.046;38.950;2023-05-27T08:16:34;24.40;63.67
64638;HTU21D;51049;45.046;38.950;2023-05-27T08:19:18;24.44;63.56
64638;HTU21D;51049;45.046;38.950;2023-05-27T08:21:56;24.47;63.12
64638;HTU21D;51049;45.046;38.950;2023-05-27T08:25:01;24.42;62.87
64638;HTU21D;51049;45.046;38.950;2023-05-27T08:27:54;24.44;63.03
64638;HTU21D;51049;45.046;38.950;2023-05-27T08:30:43;24.59;62.90
64638;HTU21D;51049;45.046;38.950;2023-05-27T08:33:15;24.64;62.65
64638;HTU21D;51049;45.046;38.950;2023-05-27T08:35:41;24.68;62.47
64638;HTU21D;51049;45.046;38.950;2023-05-27T08:38:07;24.66;62.41
64638;HTU21D;51049;45.046;38.950;2023-05-27T08:40:38;24.71;62.15
64638;HTU21D;51049;45.046;38.950;2023-05-27T08:43:05;24.72;61.86
64638;HTU21D;51049;45.046;38.950;2023-05-27T08:45:36;24.76;61.89
64638;HTU21D;51049;45.046;38.950;2023-05-27T08:48:02;24.87;61.72
64638;HTU21D;51049;45.046;38.950;2023-05-27T08:50:34;24.94;61.35
64638;HTU21D;51049;45.046;38.950;2023-05-27T08:53:02;25.00;61.28
64638;HTU21D;51049;45.046;38.950;2023-05-27T08:55:30;25.05;60.54
64638;HTU21D;51049;45.046;38.950;2023-05-27T08:57:58;24.99;60.69
64638;HTU21D;51049;45.046;38.950;2023-05-27T09:00:27;25.06;60.95
64638;HTU21D;51049;45.046;38.950;2023-05-27T09:02:57;25.24;60.76
64638;HTU21D;51049;45.046;38.950;2023-05-27T09:05:30;25.39;60.29
64638;HTU21D;51049;45.046;38.950;2023-05-27T09:07:56;25.44;59.97
64638;HTU21D;51049;45.046;38.950;2023-05-27T09:10:22;25.48;59.90
64638;HTU21D;51049;45.046;38.950;2023-05-27T09:12:50;25.49;59.73
64638;HTU21D;51049;45.046;38.950;2023-05-27T09:15:16;25.53;59.61
64638;HTU21D;51049;45.046;38.950;2023-05-27T09:17:43;25.56;59.50
64638;HTU21D;51049;45.046;38.950;2023-05-27T09:20:10;25.73;59.44
64638;HTU21D;51049;45.046;38.950;2023-05-27T09:22:40;25.97;59.38
64638;HTU21D;51049;45.046;38.950;2023-05-27T09:25:07;26.17;58.77
64638;HTU21D;51049;45.046;38.950;2023-05-27T09:27:33;26.21;58.59
64638;HTU21D;51049;45.046;38.950;2023-05-27T09:30:06;26.20;57.85
64638;HTU21D;51049;45.046;38.950;2023-05-27T09:32:33;26.11;57.89
64638;HTU21D;51049;45.046;38.950;2023-05-27T09:35:00;26.07;58.09
64638;HTU21D;51049;45.046;38.950;2023-05-27T09:37:27;26.16;58.23
64638;HTU21D;51049;45.046;38.950;2023-05-27T09:39:58;26.39;58.77
64638;HTU21D;51049;45.046;38.950;2023-05-27T09:42:24;26.65;58.06
64638;HTU21D;51049;45.046;38.950;2023-05-27T09:44:50;26.86;57.34
64638;HTU21D;51049;45.046;38.950;2023-05-27T09:47:17;27.05;57.14
64638;HTU21D;51049;45.046;38.950;2023-05-27T09:49:45;27.25;56.26
64638;HTU21D;51049;45.046;38.950;2023-05-27T09:52:13;27.32;56.18
64638;HTU21D;51049;45.046;38.950;2023-05-27T09:54:43;27.41;55.36
64638;HTU21D;51049;45.046;38.950;2023-05-27T09:57:10;27.14;55.42
64638;HTU21D;51049;45.046;38.950;2023-05-27T09:59:37;27.06;55.89
64638;HTU21D;51049;45.046;38.950;2023-05-27T10:02:05;27.16;56.12
64638;HTU21D;51049;45.046;38.950;2023-05-27T10:04:32;27.28;55.64
64638;HTU21D;51049;45.046;38.950;2023-05-27T10:06:59;27.35;55.35
64638;HTU21D;51049;45.046;38.950;2023-05-27T10:09:27;27.37;55.04
64638;HTU21D;51049;45.046;38.950;2023-05-27T10:11:53;27.34;55.34
64638;HTU21D;51049;45.046;38.950;2023-05-27T10:14:20;27.41;55.20
64638;HTU21D;51049;45.046;38.950;2023-05-27T10:16:53;27.55;54.94
64638;HTU21D;51049;45.046;38.950;2023-05-27T10:19:21;27.66;54.78
64638;HTU21D;51049;45.046;38.950;2023-05-27T10:21:47;27.66;54.37
64638;HTU21D;51049;45.046;38.950;2023-05-27T10:24:13;27.71;54.71
64638;HTU21D;51049;45.046;38.950;2023-05-27T10:26:40;27.86;54.38
64638;HTU21D;51049;45.046;38.950;2023-05-27T10:29:10;27.90;54.07
64638;HTU21D;51049;45.046;38.950;2023-05-27T10:31:44;27.93;54.05
64638;HTU21D;51049;45.046;38.950;2023-05-27T10:34:10;28.02;53.74
64638;HTU21D;51049;45.046;38.950;2023-05-27T10:36:36;28.10;53.52
64638;HTU21D;51049;45.046;38.950;2023-05-27T10:39:17;28.21;53.37
64638;HTU21D;51049;45.046;38.950;2023-05-27T10:41:50;28.30;52.78
64638;HTU21D;51049;45.046;38.950;2023-05-27T10:44:31;28.23;53.11
64638;HTU21D;51049;45.046;38.950;2023-05-27T10:47:01;28.16;52.85
64638;HTU21D;51049;45.046;38.950;2023-05-27T10:49:28;28.16;52.36
64638;HTU21D;51049;45.046;38.950;2023-05-27T10:52:11;28.20;52.28
64638;HTU21D;51049;45.046;38.950;2023-05-27T10:54:50;28.23;52.17
64638;HTU21D;51049;45.046;38.950;2023-05-27T10:57:18;28.09;51.95
64638;HTU21D;51049;45.046;38.950;2023-05-27T11:02:11;27.85;52.15
64638;HTU21D;51049;45.046;38.950;2023-05-27T11:04:37;27.70;52.04
64638;HTU21D;51049;45.046;38.950;2023-05-27T11:07:04;27.41;52.53
64638;HTU21D;51049;45.046;38.950;2023-05-27T11:09:31;27.24;53.08
64638;HTU21D;51049;45.046;38.950;2023-05-27T11:12:02;27.32;53.13
64638;HTU21D;51049;45.046;38.950;2023-05-27T11:14:31;27.37;52.85
64638;HTU21D;51049;45.046;38.950;2023-05-27T11:16:57;27.37;52.91
64638;HTU21D;51049;45.046;38.950;2023-05-27T11:19:22;27.36;52.66
64638;HTU21D;51049;45.046;38.950;2023-05-27T11:21:48;27.23;52.72
64638;HTU21D;51049;45.046;38.950;2023-05-27T11:24:18;27.16;52.78
64638;HTU21D;51049;45.046;38.950;2023-05-27T11:26:45;27.14;52.79
64638;HTU21D;51049;45.046;38.950;2023-05-27T11:29:15;27.24;52.80
64638;HTU21D;51049;45.046;38.950;2023-05-27T11:31:41;27.46;52.69
64638;HTU21D;51049;45.046;38.950;2023-05-27T11:34:15;27.74;52.33
64638;HTU21D;51049;45.046;38.950;2023-05-27T11:36:44;27.90;52.03
64638;HTU21D;51049;45.046;38.950;2023-05-27T11:39:12;28.01;51.82
64638;HTU21D;51049;45.046;38.950;2023-05-27T11:41:52;27.96;51.64
64638;HTU21D;51049;45.046;38.950;2023-05-27T11:44:20;27.85;51.80
64638;HTU21D;51049;45.046;38.950;2023-05-27T11:46:47;27.94;51.63
64638;HTU21D;51049;45.046;38.950;2023-05-27T11:49:15;28.16;50.82
64638;HTU21D;51049;45.046;38.950;2023-05-27T11:51:48;28.55;50.28
64638;HTU21D;51049;45.046;38.950;2023-05-27T11:56:43;29.66;48.23
64638;HTU21D;51049;45.046;38.950;2023-05-27T11:59:09;30.26;47.11
64638;HTU21D;51049;45.046;38.950;2023-05-27T12:01:35;30.78;45.83
64638;HTU21D;51049;45.046;38.950;2023-05-27T12:04:01;31.11;44.88
64638;HTU21D;51049;45.046;38.950;2023-05-27T12:06:27;31.55;44.45
64638;HTU21D;51049;45.046;38.950;2023-05-27T12:08:53;31.95;43.71
64638;HTU21D;51049;45.046;38.950;2023-05-27T12:11:19;32.23;43.01
64638;HTU21D;51049;45.046;38.950;2023-05-27T12:13:45;32.26;43.08
64638;HTU21D;51049;45.046;38.950;2023-05-27T12:16:11;32.41;42.84
64638;HTU21D;51049;45.046;38.950;2023-05-27T12:18:37;32.70;42.38
64638;HTU21D;51049;45.046;38.950;2023-05-27T12:21:04;33.08;41.89
64638;HTU21D;51049;45.046;38.950;2023-05-27T12:23:30;33.12;41.52
64638;HTU21D;51049;45.046;38.950;2023-05-27T12:25:56;33.26;41.39
64638;HTU21D;51049;45.046;38.950;2023-05-27T12:28:22;33.66;40.68
64638;HTU21D;51049;45.046;38.950;2023-05-27T12:30:48;33.94;39.91
64638;HTU21D;51049;45.046;38.950;2023-05-27T12:33:14;34.09;39.91
64638;HTU21D;51049;45.046;38.950;2023-05-27T12:35:40;34.31;39.46
64638;HTU21D;51049;45.046;38.950;2023-05-27T12:38:06;34.55;39.00
64638;HTU21D;51049;45.046;38.950;2023-05-27T12:40:32;34.42;38.61
64638;HTU21D;51049;45.046;38.950;2023-05-27T12:42:58;34.54;38.44
64638;HTU21D;51049;45.046;38.950;2023-05-27T12:45:25;34.67;38.02
64638;HTU21D;51049;45.046;38.950;2023-05-27T12:47:52;34.85;37.08
64638;HTU21D;51049;45.046;38.950;2023-05-27T12:50:18;34.89;37.15
64638;HTU21D;51049;45.046;38.950;2023-05-27T12:52:45;34.97;36.79
64638;HTU21D;51049;45.046;38.950;2023-05-27T12:55:15;35.06;36.76
64638;HTU21D;51049;45.046;38.950;2023-05-27T12:57:46;35.06;36.66
64638;HTU21D;51049;45.046;38.950;2023-05-27T13:00:13;35.10;36.59
64638;HTU21D;51049;45.046;38.950;2023-05-27T13:02:39;35.08;35.69
64638;HTU21D;51049;45.046;38.950;2023-05-27T13:05:05;34.95;35.74
64638;HTU21D;51049;45.046;38.950;2023-05-27T13:07:33;35.13;35.78
64638;HTU21D;51049;45.046;38.950;2023-05-27T13:10:04;35.50;34.46
64638;HTU21D;51049;45.046;38.950;2023-05-27T13:12:32;35.24;34.73
64638;HTU21D;51049;45.046;38.950;2023-05-27T13:15:00;35.22;35.11
64638;HTU21D;51049;45.046;38.950;2023-05-27T13:17:28;34.96;35.21
64638;HTU21D;51049;45.046;38.950;2023-05-27T13:19:54;34.17;35.88
64638;HTU21D;51049;45.046;38.950;2023-05-27T13:22:20;33.32;36.96
64638;HTU21D;51049;45.046;38.950;2023-05-27T13:24:46;32.83;37.80
64638;HTU21D;51049;45.046;38.950;2023-05-27T13:27:12;32.88;37.82
64638;HTU21D;51049;45.046;38.950;2023-05-27T13:29:40;32.96;37.59
64638;HTU21D;51049;45.046;38.950;2023-05-27T13:32:06;32.97;37.69
64638;HTU21D;51049;45.046;38.950;2023-05-27T13:34:33;33.22;37.26
64638;HTU21D;51049;45.046;38.950;2023-05-27T13:36:59;33.50;36.86
64638;HTU21D;51049;45.046;38.950;2023-05-27T13:39:25;33.80;36.75
64638;HTU21D;51049;45.046;38.950;2023-05-27T13:41:51;34.05;36.27
64638;HTU21D;51049;45.046;38.950;2023-05-27T13:44:17;34.27;36.14
64638;HTU21D;51049;45.046;38.950;2023-05-27T13:46:43;34.47;35.11
64638;HTU21D;51049;45.046;38.950;2023-05-27T13:49:09;34.22;35.24
64638;HTU21D;51049;45.046;38.950;2023-05-27T13:51:45;34.10;35.34
64638;HTU21D;51049;45.046;38.950;2023-05-27T13:54:11;34.23;34.79
64638;HTU21D;51049;45.046;38.950;2023-05-27T13:56:38;34.02;34.57
64638;HTU21D;51049;45.046;38.950;2023-05-27T13:59:04;33.38;35.31
64638;HTU21D;51049;45.046;38.950;2023-05-27T14:01:32;32.48;36.65
64638;HTU21D;51049;45.046;38.950;2023-05-27T14:04:01;31.58;37.98
64638;HTU21D;51049;45.046;38.950;2023-05-27T14:06:27;30.90;39.26
64638;HTU21D;51049;45.046;38.950;2023-05-27T14:08:54;30.62;39.97
64638;HTU21D;51049;45.046;38.950;2023-05-27T14:11:20;30.90;39.83
64638;HTU21D;51049;45.046;38.950;2023-05-27T14:13:49;31.34;39.19
64638;HTU21D;51049;45.046;38.950;2023-05-27T14:16:15;31.68;38.76
64638;HTU21D;51049;45.046;38.950;2023-05-27T14:18:41;31.90;38.54
64638;HTU21D;51049;45.046;38.950;2023-05-27T14:21:09;31.90;38.73
64638;HTU21D;51049;45.046;38.950;2023-05-27T14:23:35;32.03;38.73
64638;HTU21D;51049;45.046;38.950;2023-05-27T14:26:01;32.22;38.43
64638;HTU21D;51049;45.046;38.950;2023-05-27T14:28:27;32.33;38.19
64638;HTU21D;51049;45.046;38.950;2023-05-27T14:30:53;32.46;38.01
64638;HTU21D;51049;45.046;38.950;2023-05-27T14:33:19;32.63;37.77
64638;HTU21D;51049;45.046;38.950;2023-05-27T14:35:45;32.69;37.70
64638;HTU21D;51049;45.046;38.950;2023-05-27T14:38:12;32.74;37.53
64638;HTU21D;51049;45.046;38.950;2023-05-27T14:40:38;32.70;37.68
64638;HTU21D;51049;45.046;38.950;2023-05-27T14:43:05;32.69;37.78
64638;HTU21D;51049;45.046;38.950;2023-05-27T14:45:32;32.67;37.71
64638;HTU21D;51049;45.046;38.950;2023-05-27T14:47:58;32.41;37.83
64638;HTU21D;51049;45.046;38.950;2023-05-27T14:50:24;32.09;38.30
64638;HTU21D;51049;45.046;38.950;2023-05-27T14:52:53;31.98;38.43
64638;HTU21D;51049;45.046;38.950;2023-05-27T14:55:20;31.96;38.56
64638;HTU21D;51049;45.046;38.950;2023-05-27T14:57:46;31.92;38.42
64638;HTU21D;51049;45.046;38.950;2023-05-27T15:00:12;31.71;38.37
64638;HTU21D;51049;45.046;38.950;2023-05-27T15:02:39;31.40;38.85
64638;HTU21D;51049;45.046;38.950;2023-05-27T15:05:06;31.20;39.27
64638;HTU21D;51049;45.046;38.950;2023-05-27T15:07:33;31.05;39.62
64638;HTU21D;51049;45.046;38.950;2023-05-27T15:09:59;30.92;39.82
64638;HTU21D;51049;45.046;38.950;2023-05-27T15:12:37;30.85;39.92
64638;HTU21D;51049;45.046;38.950;2023-05-27T15:15:04;30.90;39.90